sensor_id;sensor_type;location;lat;lon;timestamp;pressure;altitude;pressure_sealevel;temperature;humidity
38225;BME280;24025;48.138;11.428;2023-07-08T00:01:39;95766.59;;;19.22;51.29
38225;BME280;24025;48.138;11.428;2023-07-08T00:04:11;95770.13;;;19.19;50.48
38225;BME280;24025;48.138;11.428;2023-07-08T00:06:43;95771.66;;;19.20;50.52
38225;BME280;24025;48.138;11.428;2023-07-08T00:09:14;95772.47;;;19.17;50.83
38225;BME280;24025;48.138;11.428;2023-07-08T00:11:46;95764.06;;;19.12;51.64
38225;BME280;24025;48.138;11.428;2023-07-08T00:14:18;95760.59;;;19.11;52.02
38225;BME280;24025;48.138;11.428;2023-07-08T00:16:49;95754.00;;;19.12;51.25
38225;BME280;24025;48.138;11.428;2023-07-08T00:19:21;95760.25;;;19.09;51.40
38225;BME280;24025;48.138;11.428;2023-07-08T00:21:55;95755.66;;;19.06;51.62
38225;BME280;24025;48.138;11.428;2023-07-08T00:24:26;95754.53;;;19.04;51.34
38225;BME280;24025;48.138;11.428;2023-07-08T00:26:58;95750.34;;;18.99;51.58
38225;BME280;24025;48.138;11.428;2023-07-08T00:29:29;95750.78;;;18.98;52.37
38225;BME280;24025;48.138;11.428;2023-07-08T00:32:01;95751.59;;;18.94;52.54
38225;BME280;24025;48.138;11.428;2023-07-08T00:34:33;95756.66;;;18.92;52.52
38225;BME280;24025;48.138;11.428;2023-07-08T00:37:04;95746.97;;;18.95;52.17
38225;BME280;24025;48.138;11.428;2023-07-08T00:39:36;95753.13;;;18.95;52.43
38225;BME280;24025;48.138;11.428;2023-07-08T00:42:19;95757.00;;;18.94;52.50
38225;BME280;24025;48.138;11.428;2023-07-08T00:44:53;95751.59;;;18.94;52.59
38225;BME280;24025;48.138;11.428;2023-07-08T00:47:25;95752.06;;;18.89;52.70
38225;BME280;24025;48.138;11.428;2023-07-08T00:49:58;95759.41;;;18.89;53.01
38225;BME280;24025;48.138;11.428;2023-07-08T00:52:33;95752.47;;;18.88;53.56
38225;BME280;24025;48.138;11.428;2023-07-08T00:55:07;95758.28;;;18.86;53.50
38225;BME280;24025;48.138;11.428;2023-07-08T00:57:43;95746.78;;;18.82;53.47
38225;BME280;24025;48.138;11.428;2023-07-08T01:00:16;95741.84;;;18.77;53.73
38225;BME280;24025;48.138;11.428;2023-07-08T01:02:51;95750.00;;;18.74;54.12
38225;BME280;24025;48.138;11.428;2023-07-08T01:05:25;95748.09;;;18.71;54.11
38225;BME280;24025;48.138;11.428;2023-07-08T01:08:02;95744.28;;;18.68;55.03
38225;BME280;24025;48.138;11.428;2023-07-08T01:10:46;95746.22;;;18.67;54.02
38225;BME280;24025;48.138;11.428;2023-07-08T01:13:19;95745.47;;;18.67;54.29
38225;BME280;24025;48.138;11.428;2023-07-08T01:15:52;95737.38;;;18.63;54.94
38225;BME280;24025;48.138;11.428;2023-07-08T01:18:24;95747.13;;;18.57;55.44
38225;BME280;24025;48.138;11.428;2023-07-08T01:21:02;95747.13;;;18.57;55.07
38225;BME280;24025;48.138;11.428;2023-07-08T01:23:37;95756.03;;;18.54;55.31
38225;BME280;24025;48.138;11.428;2023-07-08T01:26:09;95751.47;;;18.51;55.38
38225;BME280;24025;48.138;11.428;2023-07-08T01:28:41;95753.81;;;18.49;55.77
38225;BME280;24025;48.138;11.428;2023-07-08T01:31:12;95756.09;;;18.51;55.74
38225;BME280;24025;48.138;11.428;2023-07-08T01:33:44;95756.53;;;18.46;56.38
38225;BME280;24025;48.138;11.428;2023-07-08T01:36:16;95759.66;;;18.44;56.61
38225;BME280;24025;48.138;11.428;2023-07-08T01:38:48;95758.53;;;18.42;56.43
38225;BME280;24025;48.138;11.428;2023-07-08T01:41:20;95759.38;;;18.38;56.59
38225;BME280;24025;48.138;11.428;2023-07-08T01:43:51;95752.06;;;18.35;56.79
38225;BME280;24025;48.138;11.428;2023-07-08T01:46:24;95755.22;;;18.30;56.99
38225;BME280;24025;48.138;11.428;2023-07-08T01:48:57;95751.75;;;18.30;56.95
38225;BME280;24025;48.138;11.428;2023-07-08T01:51:31;95744.47;;;18.27;56.80
38225;BME280;24025;48.138;11.428;2023-07-08T01:54:02;95744.47;;;18.27;57.42
38225;BME280;24025;48.138;11.428;2023-07-08T01:56:34;95743.34;;;18.24;57.49
38225;BME280;24025;48.138;11.428;2023-07-08T01:59:05;95737.94;;;18.24;57.04
38225;BME280;24025;48.138;11.428;2023-07-08T02:01:37;95736.00;;;18.25;57.30
38225;BME280;24025;48.138;11.428;2023-07-08T02:04:09;95738.78;;;18.21;57.32
38225;BME280;24025;48.138;11.428;2023-07-08T02:06:40;95736.84;;;18.22;57.62
38225;BME280;24025;48.138;11.428;2023-07-08T02:09:13;95732.97;;;18.23;57.61
38225;BME280;24025;48.138;11.428;2023-07-08T02:11:44;95730.28;;;18.19;57.49
38225;BME280;24025;48.138;11.428;2023-07-08T02:14:16;95741.50;;;18.18;57.74
38225;BME280;24025;48.138;11.428;2023-07-08T02:16:48;95730.66;;;18.21;57.01
38225;BME280;24025;48.138;11.428;2023-07-08T02:19:20;95734.53;;;18.20;57.39
38225;BME280;24025;48.138;11.428;2023-07-08T02:21:53;95734.13;;;18.22;56.92
38225;BME280;24025;48.138;11.428;2023-07-08T02:24:25;95728.34;;;18.20;57.33
38225;BME280;24025;48.138;11.428;2023-07-08T02:26:56;95722.19;;;18.19;56.99
38225;BME280;24025;48.138;11.428;2023-07-08T02:29:28;95717.19;;;18.18;57.37
38225;BME280;24025;48.138;11.428;2023-07-08T02:32:00;95720.25;;;18.20;56.91
38225;BME280;24025;48.138;11.428;2023-07-08T02:34:32;95711.41;;;18.19;56.79
38225;BME280;24025;48.138;11.428;2023-07-08T02:37:04;95728.34;;;18.20;56.70
38225;BME280;24025;48.138;11.428;2023-07-08T02:39:36;95716.03;;;18.19;56.78
38225;BME280;24025;48.138;11.428;2023-07-08T02:42:08;95713.31;;;18.19;56.71
38225;BME280;24025;48.138;11.428;2023-07-08T02:44:40;95726.88;;;18.15;57.19
38225;BME280;24025;48.138;11.428;2023-07-08T02:47:11;95726.13;;;18.15;57.44
38225;BME280;24025;48.138;11.428;2023-07-08T02:49:43;95737.34;;;18.13;57.41
38225;BME280;24025;48.138;11.428;2023-07-08T02:52:15;95724.94;;;18.16;57.32
38225;BME280;24025;48.138;11.428;2023-07-08T02:54:46;95731.47;;;18.18;56.70
38225;BME280;24025;48.138;11.428;2023-07-08T02:57:18;95725.66;;;18.20;57.15
38225;BME280;24025;48.138;11.428;2023-07-08T02:59:49;95724.13;;;18.19;57.24
38225;BME280;24025;48.138;11.428;2023-07-08T03:02:22;95724.53;;;18.17;56.96
38225;BME280;24025;48.138;11.428;2023-07-08T03:04:54;95724.94;;;18.16;57.22
38225;BME280;24025;48.138;11.428;2023-07-08T03:07:25;95725.00;;;18.12;57.43
38225;BME280;24025;48.138;11.428;2023-07-08T03:09:57;95721.53;;;18.11;57.54
38225;BME280;24025;48.138;11.428;2023-07-08T03:12:28;95732.72;;;18.10;57.82
38225;BME280;24025;48.138;11.428;2023-07-08T03:15:00;95734.28;;;18.11;57.67
38225;BME280;24025;48.138;11.428;2023-07-08T03:17:32;95735.13;;;18.04;57.99
38225;BME280;24025;48.138;11.428;2023-07-08T03:20:03;95744.00;;;18.05;57.71
38225;BME280;24025;48.138;11.428;2023-07-08T03:22:37;95740.88;;;18.06;58.22
38225;BME280;24025;48.138;11.428;2023-07-08T03:25:09;95733.97;;;18.05;57.89
38225;BME280;24025;48.138;11.428;2023-07-08T03:27:40;95732.47;;;18.01;58.32
38225;BME280;24025;48.138;11.428;2023-07-08T03:30:15;95725.13;;;18.01;57.74
38225;BME280;24025;48.138;11.428;2023-07-08T03:32:46;95718.19;;;18.00;56.79
38225;BME280;24025;48.138;11.428;2023-07-08T03:35:18;95715.56;;;17.97;57.08
38225;BME280;24025;48.138;11.428;2023-07-08T03:37:49;95719.72;;;18.01;57.18
38225;BME280;24025;48.138;11.428;2023-07-08T03:40:21;95727.81;;;18.01;57.03
38225;BME280;24025;48.138;11.428;2023-07-08T03:42:53;95733.59;;;18.03;56.76
38225;BME280;24025;48.138;11.428;2023-07-08T03:45:25;95731.28;;;18.02;57.04
38225;BME280;24025;48.138;11.428;2023-07-08T03:47:57;95725.50;;;18.03;57.23
38225;BME280;24025;48.138;11.428;2023-07-08T03:50:29;95725.50;;;18.03;57.66
38225;BME280;24025;48.138;11.428;2023-07-08T03:53:00;95740.53;;;18.04;57.88
38225;BME280;24025;48.138;11.428;2023-07-08T03:55:32;95740.47;;;18.08;57.75
38225;BME280;24025;48.138;11.428;2023-07-08T03:58:03;95743.56;;;18.06;57.28
38225;BME280;24025;48.138;11.428;2023-07-08T04:00:35;95738.13;;;18.10;57.92
38225;BME280;24025;48.138;11.428;2023-07-08T04:03:10;95739.25;;;18.13;57.43
38225;BME280;24025;48.138;11.428;2023-07-08T04:05:42;95741.97;;;18.13;57.89
38225;BME280;24025;48.138;11.428;2023-07-08T04:08:14;95739.25;;;18.13;57.84
38225;BME280;24025;48.138;11.428;2023-07-08T04:10:45;95739.25;;;18.13;58.33
38225;BME280;24025;48.138;11.428;2023-07-08T04:13:17;95736.44;;;18.20;58.16
38225;BME280;24025;48.138;11.428;2023-07-08T04:15:59;95742.22;;;18.22;57.50
38225;BME280;24025;48.138;11.428;2023-07-08T04:18:32;95753.03;;;18.22;57.64
38225;BME280;24025;48.138;11.428;2023-07-08T04:21:03;95750.31;;;18.22;57.75
38225;BME280;24025;48.138;11.428;2023-07-08T04:23:38;95745.69;;;18.22;57.42
38225;BME280;24025;48.138;11.428;2023-07-08T04:26:09;95755.00;;;18.18;57.45
38225;BME280;24025;48.138;11.428;2023-07-08T04:28:42;95748.03;;;18.20;57.32
38225;BME280;24025;48.138;11.428;2023-07-08T04:31:14;95760.72;;;18.23;57.47
38225;BME280;24025;48.138;11.428;2023-07-08T04:33:45;95756.09;;;18.24;57.14
38225;BME280;24025;48.138;11.428;2023-07-08T04:36:17;95762.25;;;18.24;57.32
38225;BME280;24025;48.138;11.428;2023-07-08T04:38:48;95758.38;;;18.25;57.32
38225;BME280;24025;48.138;11.428;2023-07-08T04:41:20;95762.19;;;18.28;57.24
38225;BME280;24025;48.138;11.428;2023-07-08T04:43:52;95768.41;;;18.25;57.32
38225;BME280;24025;48.138;11.428;2023-07-08T04:49:07;95788.63;;;18.09;57.42
38225;BME280;24025;48.138;11.428;2023-07-08T04:51:41;95788.63;;;18.09;57.65
38225;BME280;24025;48.138;11.428;2023-07-08T04:54:12;95795.00;;;17.96;58.97
38225;BME280;24025;48.138;11.428;2023-07-08T04:56:47;95800.53;;;17.81;59.23
38225;BME280;24025;48.138;11.428;2023-07-08T04:59:24;95805.97;;;17.78;59.10
38225;BME280;24025;48.138;11.428;2023-07-08T05:01:56;95797.44;;;17.83;58.48
38225;BME280;24025;48.138;11.428;2023-07-08T05:04:28;95807.16;;;17.77;58.66
38225;BME280;24025;48.138;11.428;2023-07-08T05:06:59;95806.53;;;17.59;59.79
38225;BME280;24025;48.138;11.428;2023-07-08T05:09:31;95814.44;;;17.80;58.95
38225;BME280;24025;48.138;11.428;2023-07-08T05:12:03;95815.53;;;17.86;59.28
38225;BME280;24025;48.138;11.428;2023-07-08T05:14:34;95817.56;;;17.75;59.19
38225;BME280;24025;48.138;11.428;2023-07-08T05:17:06;95812.53;;;17.77;58.71
38225;BME280;24025;48.138;11.428;2023-07-08T05:19:37;95810.91;;;17.87;58.23
38225;BME280;24025;48.138;11.428;2023-07-08T05:22:09;95807.66;;;17.99;57.71
38225;BME280;24025;48.138;11.428;2023-07-08T05:24:41;95815.00;;;17.98;57.76
38225;BME280;24025;48.138;11.428;2023-07-08T05:27:12;95811.38;;;18.12;57.57
38225;BME280;24025;48.138;11.428;2023-07-08T05:29:48;95806.97;;;18.25;57.27
38225;BME280;24025;48.138;11.428;2023-07-08T05:32:20;95814.22;;;18.32;56.98
38225;BME280;24025;48.138;11.428;2023-07-08T05:34:52;95802.06;;;18.47;56.69
38225;BME280;24025;48.138;11.428;2023-07-08T05:37:24;95794.50;;;18.65;55.78
38225;BME280;24025;48.138;11.428;2023-07-08T05:39:59;95790.03;;;18.82;55.73
38225;BME280;24025;48.138;11.428;2023-07-08T05:42:33;95790.13;;;18.99;55.58
38225;BME280;24025;48.138;11.428;2023-07-08T05:45:05;95788.59;;;18.98;55.44
38225;BME280;24025;48.138;11.428;2023-07-08T05:47:42;95794.03;;;19.21;55.27
38225;BME280;24025;48.138;11.428;2023-07-08T05:50:13;95788.41;;;19.35;54.49
38225;BME280;24025;48.138;11.428;2023-07-08T05:52:45;95798.19;;;19.49;53.65
38225;BME280;24025;48.138;11.428;2023-07-08T05:55:16;95796.84;;;19.61;53.41
38225;BME280;24025;48.138;11.428;2023-07-08T05:57:48;95792.78;;;19.72;53.58
38225;BME280;24025;48.138;11.428;2023-07-08T06:00:20;95788.63;;;19.88;53.31
38225;BME280;24025;48.138;11.428;2023-07-08T06:03:09;95784.53;;;19.99;52.10
38225;BME280;24025;48.138;11.428;2023-07-08T06:05:40;95787.59;;;19.82;52.47
38225;BME280;24025;48.138;11.428;2023-07-08T06:08:14;95794.66;;;19.95;52.33
38225;BME280;24025;48.138;11.428;2023-07-08T06:10:45;95790.22;;;20.05;52.68
38225;BME280;24025;48.138;11.428;2023-07-08T06:13:17;95791.53;;;20.17;52.70
38225;BME280;24025;48.138;11.428;2023-07-08T06:15:49;95792.56;;;20.23;51.64
38225;BME280;24025;48.138;11.428;2023-07-08T06:18:20;95793.56;;;20.32;51.44
38225;BME280;24025;48.138;11.428;2023-07-08T06:20:56;95792.63;;;20.39;51.24
38225;BME280;24025;48.138;11.428;2023-07-08T06:23:29;95789.72;;;20.50;51.07
38225;BME280;24025;48.138;11.428;2023-07-08T06:26:01;95791.03;;;20.61;50.71
38225;BME280;24025;48.138;11.428;2023-07-08T06:28:33;95777.97;;;20.73;50.82
38225;BME280;24025;48.138;11.428;2023-07-08T06:31:04;95788.56;;;20.83;50.97
38225;BME280;24025;48.138;11.428;2023-07-08T06:33:36;95780.97;;;20.95;50.67
38225;BME280;24025;48.138;11.428;2023-07-08T06:36:08;95781.97;;;21.01;50.83
38225;BME280;24025;48.138;11.428;2023-07-08T06:38:39;95782.50;;;21.12;50.98
38225;BME280;24025;48.138;11.428;2023-07-08T06:41:11;95791.91;;;21.24;50.70
38225;BME280;24025;48.138;11.428;2023-07-08T06:43:42;95793.72;;;21.30;50.37
38225;BME280;24025;48.138;11.428;2023-07-08T06:46:14;95792.53;;;21.31;49.79
38225;BME280;24025;48.138;11.428;2023-07-08T06:48:45;95807.84;;;21.38;50.22
38225;BME280;24025;48.138;11.428;2023-07-08T06:51:17;95815.16;;;21.41;50.13
38225;BME280;24025;48.138;11.428;2023-07-08T06:53:48;95817.84;;;21.41;49.69
38225;BME280;24025;48.138;11.428;2023-07-08T06:56:20;95820.81;;;21.46;50.05
38225;BME280;24025;48.138;11.428;2023-07-08T06:58:52;95813.03;;;21.48;49.33
38225;BME280;24025;48.138;11.428;2023-07-08T07:01:23;95813.69;;;21.53;49.83
38225;BME280;24025;48.138;11.428;2023-07-08T07:03:55;95824.22;;;21.51;49.42
38225;BME280;24025;48.138;11.428;2023-07-08T07:06:27;95809.38;;;21.39;49.43
38225;BME280;24025;48.138;11.428;2023-07-08T07:08:58;95807.78;;;21.41;49.50
38225;BME280;24025;48.138;11.428;2023-07-08T07:11:30;95815.13;;;21.57;49.39
38225;BME280;24025;48.138;11.428;2023-07-08T07:14:02;95810.53;;;21.54;49.22
38225;BME280;24025;48.138;11.428;2023-07-08T07:16:33;95801.59;;;21.70;49.03
38225;BME280;24025;48.138;11.428;2023-07-08T07:19:05;95800.25;;;21.62;49.03
38225;BME280;24025;48.138;11.428;2023-07-08T07:21:36;95791.56;;;21.83;48.80
38225;BME280;24025;48.138;11.428;2023-07-08T07:24:08;95800.56;;;21.80;49.16
38225;BME280;24025;48.138;11.428;2023-07-08T07:26:40;95804.31;;;21.99;48.20
38225;BME280;24025;48.138;11.428;2023-07-08T07:29:15;95812.38;;;21.73;48.85
38225;BME280;24025;48.138;11.428;2023-07-08T07:31:47;95820.00;;;21.78;48.83
38225;BME280;24025;48.138;11.428;2023-07-08T07:34:20;95827.50;;;21.58;48.34
38225;BME280;24025;48.138;11.428;2023-07-08T07:36:51;95836.13;;;21.69;48.71
38225;BME280;24025;48.138;11.428;2023-07-08T07:39:23;95844.69;;;21.84;48.83
38225;BME280;24025;48.138;11.428;2023-07-08T07:41:54;95846.81;;;21.76;49.12
38225;BME280;24025;48.138;11.428;2023-07-08T07:44:26;95849.97;;;21.75;49.44
38225;BME280;24025;48.138;11.428;2023-07-08T07:46:57;95861.28;;;21.57;50.08
38225;BME280;24025;48.138;11.428;2023-07-08T07:49:29;95856.75;;;21.67;49.92
38225;BME280;24025;48.138;11.428;2023-07-08T07:52:01;95869.44;;;21.86;50.47
38225;BME280;24025;48.138;11.428;2023-07-08T07:54:32;95884.81;;;21.93;50.62
38225;BME280;24025;48.138;11.428;2023-07-08T07:57:04;95878.31;;;21.74;51.40
38225;BME280;24025;48.138;11.428;2023-07-08T07:59:36;95874.00;;;22.05;50.59
38225;BME280;24025;48.138;11.428;2023-07-08T08:02:09;95876.25;;;21.62;51.61
38225;BME280;24025;48.138;11.428;2023-07-08T08:04:43;95874.13;;;21.86;50.57
38225;BME280;24025;48.138;11.428;2023-07-08T08:07:15;95875.00;;;21.83;50.88
38225;BME280;24025;48.138;11.428;2023-07-08T08:09:46;95881.66;;;21.94;50.39
38225;BME280;24025;48.138;11.428;2023-07-08T08:12:18;95877.63;;;22.15;50.05
38225;BME280;24025;48.138;11.428;2023-07-08T08:14:50;95882.22;;;22.47;50.01
38225;BME280;24025;48.138;11.428;2023-07-08T08:17:21;95887.50;;;22.38;48.90
38225;BME280;24025;48.138;11.428;2023-07-08T08:19:53;95891.63;;;22.72;47.51
38225;BME280;24025;48.138;11.428;2023-07-08T08:22:24;95899.91;;;22.39;47.92
38225;BME280;24025;48.138;11.428;2023-07-08T08:24:56;95894.41;;;22.55;47.09
38225;BME280;24025;48.138;11.428;2023-07-08T08:27:27;95894.50;;;22.52;47.75
38225;BME280;24025;48.138;11.428;2023-07-08T08:29:59;95887.91;;;22.66;47.23
38225;BME280;24025;48.138;11.428;2023-07-08T08:32:30;95884.44;;;22.78;47.03
38225;BME280;24025;48.138;11.428;2023-07-08T08:35:03;95890.75;;;22.75;47.17
38225;BME280;24025;48.138;11.428;2023-07-08T08:37:34;95882.09;;;23.05;46.44
38225;BME280;24025;48.138;11.428;2023-07-08T08:40:11;95896.78;;;22.95;44.82
38225;BME280;24025;48.138;11.428;2023-07-08T08:42:53;95886.13;;;23.01;45.10
38225;BME280;24025;48.138;11.428;2023-07-08T08:45:43;95880.59;;;23.17;45.20
38225;BME280;24025;48.138;11.428;2023-07-08T08:48:19;95895.06;;;23.01;45.47
38225;BME280;24025;48.138;11.428;2023-07-08T08:53:23;95886.88;;;23.01;45.88
38225;BME280;24025;48.138;11.428;2023-07-08T08:56:24;95897.34;;;23.28;45.20
38225;BME280;24025;48.138;11.428;2023-07-08T09:05:14;95888.72;;;23.68;43.82
38225;BME280;24025;48.138;11.428;2023-07-08T09:10:43;95910.84;;;23.70;43.86
38225;BME280;24025;48.138;11.428;2023-07-08T09:13:24;95900.13;;;23.76;43.11
38225;BME280;24025;48.138;11.428;2023-07-08T09:16:05;95911.38;;;23.65;43.67
38225;BME280;24025;48.138;11.428;2023-07-08T09:18:42;95909.72;;;23.67;43.89
38225;BME280;24025;48.138;11.428;2023-07-08T09:21:24;95894.44;;;23.95;44.28
38225;BME280;24025;48.138;11.428;2023-07-08T09:24:02;95905.84;;;23.68;44.16
38225;BME280;24025;48.138;11.428;2023-07-08T09:26:39;95903.09;;;23.68;43.78
38225;BME280;24025;48.138;11.428;2023-07-08T09:29:12;95906.78;;;23.87;43.60
38225;BME280;24025;48.138;11.428;2023-07-08T09:31:44;95905.16;;;23.77;43.41
38225;BME280;24025;48.138;11.428;2023-07-08T09:34:19;95902.44;;;23.77;44.03
38225;BME280;24025;48.138;11.428;2023-07-08T09:36:51;95904.41;;;23.64;44.15
38225;BME280;24025;48.138;11.428;2023-07-08T09:39:23;95899.97;;;23.92;43.76
38225;BME280;24025;48.138;11.428;2023-07-08T09:41:55;95891.41;;;24.15;43.50
38225;BME280;24025;48.138;11.428;2023-07-08T09:44:27;95890.25;;;24.38;42.75
38225;BME280;24025;48.138;11.428;2023-07-08T09:47:01;95894.34;;;24.21;42.78
38225;BME280;24025;48.138;11.428;2023-07-08T09:49:35;95894.75;;;24.19;43.40
38225;BME280;24025;48.138;11.428;2023-07-08T09:52:07;95899.22;;;24.39;42.67
38225;BME280;24025;48.138;11.428;2023-07-08T09:54:40;95904.13;;;24.31;41.70
38225;BME280;24025;48.138;11.428;2023-07-08T09:57:25;95901.31;;;24.22;41.71
38225;BME280;24025;48.138;11.428;2023-07-08T10:00:00;95902.41;;;24.46;41.17
38225;BME280;24025;48.138;11.428;2023-07-08T10:07:54;95897.31;;;25.01;42.21
38225;BME280;24025;48.138;11.428;2023-07-08T10:10:32;95895.25;;;25.14;41.63
38225;BME280;24025;48.138;11.428;2023-07-08T10:13:19;95906.88;;;25.37;41.08
38225;BME280;24025;48.138;11.428;2023-07-08T10:16:00;95909.78;;;25.52;39.90
38225;BME280;24025;48.138;11.428;2023-07-08T10:18:36;95903.41;;;25.36;39.75
38225;BME280;24025;48.138;11.428;2023-07-08T10:24:30;95912.31;;;25.77;39.27
38225;BME280;24025;48.138;11.428;2023-07-08T10:30:24;95904.34;;;25.52;39.42
38225;BME280;24025;48.138;11.428;2023-07-08T10:36:05;95910.22;;;25.81;38.70
38225;BME280;24025;48.138;11.428;2023-07-08T10:41:54;95904.72;;;25.72;37.75
38225;BME280;24025;48.138;11.428;2023-07-08T10:51:05;95907.81;;;26.57;37.49
38225;BME280;24025;48.138;11.428;2023-07-08T10:54:03;95900.06;;;26.55;37.37
38225;BME280;24025;48.138;11.428;2023-07-08T11:02:35;95896.34;;;27.37;35.33
38225;BME280;24025;48.138;11.428;2023-07-08T11:08:16;95890.31;;;27.90;34.45
38225;BME280;24025;48.138;11.428;2023-07-08T11:10:54;95890.84;;;27.46;34.02
38225;BME280;24025;48.138;11.428;2023-07-08T11:13:51;95887.47;;;27.84;34.39
38225;BME280;24025;48.138;11.428;2023-07-08T11:16:51;95890.22;;;27.99;33.74
38225;BME280;24025;48.138;11.428;2023-07-08T11:19:43;95890.47;;;28.10;33.60
38225;BME280;24025;48.138;11.428;2023-07-08T11:22:19;95885.47;;;28.23;33.55
38225;BME280;24025;48.138;11.428;2023-07-08T11:24:54;95881.94;;;28.08;33.75
38225;BME280;24025;48.138;11.428;2023-07-08T11:27:33;95880.13;;;28.29;33.88
38225;BME280;24025;48.138;11.428;2023-07-08T11:30:12;95887.81;;;28.16;34.08
38225;BME280;24025;48.138;11.428;2023-07-08T11:32:47;95886.50;;;28.11;33.81
38225;BME280;24025;48.138;11.428;2023-07-08T11:38:16;95870.69;;;28.30;31.89
38225;BME280;24025;48.138;11.428;2023-07-08T11:43:36;95865.38;;;29.15;31.26
38225;BME280;24025;48.138;11.428;2023-07-08T11:46:16;95867.78;;;28.93;31.31
38225;BME280;24025;48.138;11.428;2023-07-08T11:48:52;95864.53;;;28.79;31.63
38225;BME280;24025;48.138;11.428;2023-07-08T11:51:30;95865.41;;;29.00;33.52
38225;BME280;24025;48.138;11.428;2023-07-08T11:54:30;95873.72;;;29.06;32.76
38225;BME280;24025;48.138;11.428;2023-07-08T11:57:07;95867.22;;;28.74;34.16
38225;BME280;24025;48.138;11.428;2023-07-08T11:59:47;95867.59;;;28.82;34.03
38225;BME280;24025;48.138;11.428;2023-07-08T12:02:20;95864.16;;;28.87;33.97
38225;BME280;24025;48.138;11.428;2023-07-08T12:07:41;95864.81;;;28.52;33.31
38225;BME280;24025;48.138;11.428;2023-07-08T12:10:49;95860.19;;;29.17;33.19
38225;BME280;24025;48.138;11.428;2023-07-08T12:13:23;95865.19;;;29.33;32.82
38225;BME280;24025;48.138;11.428;2023-07-08T12:15:56;95860.28;;;29.99;32.00
38225;BME280;24025;48.138;11.428;2023-07-08T12:18:29;95854.75;;;30.13;30.65
38225;BME280;24025;48.138;11.428;2023-07-08T12:21:03;95860.69;;;30.58;31.34
38225;BME280;24025;48.138;11.428;2023-07-08T12:23:34;95856.78;;;30.65;30.73
38225;BME280;24025;48.138;11.428;2023-07-08T12:26:08;95862.41;;;30.56;30.38
38225;BME280;24025;48.138;11.428;2023-07-08T12:28:40;95851.53;;;30.41;30.17
38225;BME280;24025;48.138;11.428;2023-07-08T12:31:20;95843.34;;;31.04;30.96
38225;BME280;24025;48.138;11.428;2023-07-08T12:33:54;95844.59;;;31.09;30.11
38225;BME280;24025;48.138;11.428;2023-07-08T12:36:28;95847.16;;;31.49;28.79
38225;BME280;24025;48.138;11.428;2023-07-08T12:39:01;95836.53;;;31.31;28.66
38225;BME280;24025;48.138;11.428;2023-07-08T12:41:35;95842.09;;;31.85;28.81
38225;BME280;24025;48.138;11.428;2023-07-08T12:44:21;95832.88;;;32.10;27.44
38225;BME280;24025;48.138;11.428;2023-07-08T12:46:54;95842.03;;;32.50;28.34
38225;BME280;24025;48.138;11.428;2023-07-08T12:49:26;95836.06;;;32.85;28.65
38225;BME280;24025;48.138;11.428;2023-07-08T12:52:00;95842.03;;;32.67;26.88
38225;BME280;24025;48.138;11.428;2023-07-08T12:54:33;95841.69;;;32.09;27.64
38225;BME280;24025;48.138;11.428;2023-07-08T12:57:08;95852.06;;;32.36;27.37
38225;BME280;24025;48.138;11.428;2023-07-08T12:59:40;95846.31;;;32.46;27.54
38225;BME280;24025;48.138;11.428;2023-07-08T13:02:19;95849.34;;;32.76;27.57
38225;BME280;24025;48.138;11.428;2023-07-08T13:04:57;95856.59;;;31.80;28.26
38225;BME280;24025;48.138;11.428;2023-07-08T13:07:38;95859.13;;;31.09;27.85
38225;BME280;24025;48.138;11.428;2023-07-08T13:10:21;95856.66;;;30.80;28.24
38225;BME280;24025;48.138;11.428;2023-07-08T13:12:58;95861.94;;;30.57;28.69
38225;BME280;24025;48.138;11.428;2023-07-08T13:15:35;95862.34;;;30.70;28.01
38225;BME280;24025;48.138;11.428;2023-07-08T13:18:33;95861.88;;;30.26;29.04
38225;BME280;24025;48.138;11.428;2023-07-08T13:21:10;95866.41;;;30.55;28.83
38225;BME280;24025;48.138;11.428;2023-07-08T13:23:43;95860.19;;;31.17;29.30
38225;BME280;24025;48.138;11.428;2023-07-08T13:26:21;95852.22;;;31.62;27.96
38225;BME280;24025;48.138;11.428;2023-07-08T13:29:01;95852.75;;;31.23;27.54
38225;BME280;24025;48.138;11.428;2023-07-08T13:31:34;95860.19;;;31.92;26.59
38225;BME280;24025;48.138;11.428;2023-07-08T13:34:09;95858.69;;;31.48;26.52
38225;BME280;24025;48.138;11.428;2023-07-08T13:36:43;95854.03;;;32.25;24.88
38225;BME280;24025;48.138;11.428;2023-07-08T13:39:19;95859.03;;;31.67;24.09
38225;BME280;24025;48.138;11.428;2023-07-08T13:41:52;95849.31;;;32.48;25.10
38225;BME280;24025;48.138;11.428;2023-07-08T13:44:23;95847.88;;;33.14;24.12
38225;BME280;24025;48.138;11.428;2023-07-08T13:46:59;95846.34;;;33.02;23.41
38225;BME280;24025;48.138;11.428;2023-07-08T13:49:42;95853.53;;;32.32;23.55
38225;BME280;24025;48.138;11.428;2023-07-08T13:52:17;95849.06;;;32.46;23.79
38225;BME280;24025;48.138;11.428;2023-07-08T13:55:00;95861.19;;;31.94;25.43
38225;BME280;24025;48.138;11.428;2023-07-08T13:57:39;95849.81;;;32.46;24.76
38225;BME280;24025;48.138;11.428;2023-07-08T14:00:11;95848.59;;;32.64;24.33
38225;BME280;24025;48.138;11.428;2023-07-08T14:02:44;95846.09;;;33.11;24.65
38225;BME280;24025;48.138;11.428;2023-07-08T14:05:16;95844.56;;;32.54;25.37
38225;BME280;24025;48.138;11.428;2023-07-08T14:07:51;95850.81;;;32.37;25.57
38225;BME280;24025;48.138;11.428;2023-07-08T14:10:23;95838.81;;;32.85;25.24
38225;BME280;24025;48.138;11.428;2023-07-08T14:12:55;95839.31;;;33.12;24.51
38225;BME280;24025;48.138;11.428;2023-07-08T14:15:26;95839.72;;;32.32;26.10
38225;BME280;24025;48.138;11.428;2023-07-08T14:18:00;95839.22;;;32.33;25.66
38225;BME280;24025;48.138;11.428;2023-07-08T14:20:32;95843.41;;;31.52;26.51
38225;BME280;24025;48.138;11.428;2023-07-08T14:23:04;95842.84;;;31.06;26.06